Terminal Aerodrome Forecast
Issued by NWS Bismarck, ND

Home | Current Version | Previous Version | Text Only | Print | Product List | Glossary On
Versions: 1 2 3 4 5 6 7 8 9 10 11 12 13 14 15 16 17 18 19 20
000
FTUS43 KBIS 201740
TAFISN
TAF
KISN 201740Z 2018/2118 15005KT P6SM VCSH BKN120
     FM202200 15009KT P6SM FEW110 SCT250
     FM211300 26011G19KT P6SM FEW250
     FM211500 29017G25KT P6SM FEW250=

USA.gov is the U.S. government's official web portal to all federal, state and local government web resources and services.